CheckWX is a tool to help pilots better visualize weather data.  It is not intended as a substitute for an official pre-flight weather briefing.

20:06:44 UTC

CZPC METAR
Pincher Creek Airport
Pincher Creek, Canada
Current

1 hour ago

CZPC 041900Z AUTO 33008G15KT 9SM SCT047 BKN065 BKN081 12/06 A2993 RMK SLP140 DENSITY ALT 4400FT
Observed
Jun-4 @ 19:00 UTC
Wind
  • 330° at 8 KTS
  • Gusting to 15 KTS
Visibility
Flight Rules
VFR
Cloud Levels
  • Scattered at 4,700' AGL
  • Broken at 6,500' AGL
  • Broken at 8,100' AGL
Temperature
12°C / 54°F
Dewpoint
C / 43°F
Humidity
67%
Altimeter
29.93" Hg
Pressure
1013.52 hPa
Previous

2 hours ago

CZPC 041805Z AUTO VRB02KT 9SM FEW025 SCT042 BKN070 BKN110 11/04 A2994 RMK SLP146 DENSITY ALT 4300FT
Observed
Jun-4 @ 18:05 UTC
Wind
  • Variable at 2 KTS
Visibility
Flight Rules
VFR
Cloud Levels
  • Few at 2,500' AGL
  • Scattered at 4,200' AGL
  • Broken at 7,000' AGL
  • Broken at 11,000' AGL
Temperature
11°C / 52°F
Dewpoint
C / 39°F
Humidity
62%
Altimeter
29.94" Hg
Pressure
1013.92 hPa
Previous

2 hours ago

CZPC 041743Z AUTO 21008KT 120V290 9SM -RA FEW034 BKN044 BKN060 10/05 A2995 RMK SLP149 DENSITY ALT 4200FT
Observed
Jun-4 @ 17:43 UTC
Wind
  • 210° at 8 KTS
Visibility
Flight Rules
VFR
Conditions
Light Rain
Cloud Levels
  • Few at 3,400' AGL
  • Broken at 4,400' AGL
  • Broken at 6,000' AGL
Temperature
10°C / 50°F
Dewpoint
C / 41°F
Humidity
71%
Altimeter
29.95" Hg
Pressure
1014.22 hPa